Metar z połowy godziny Komunikat METAR ze strony awiacja.imgw.pl Metar G30 EPCE METAR EPCE 241130Z 26010KT 9999 FEW026 BKN137 07/00 Q1022 RMK 065 064 5/1=